Impacts TAF Board INFO
FOR SITUATIONAL AWARENESS. NOT TO BE USED FOR FLIGHT PLANNING PURPOSES.
IDs:

KATL - Atlanta/Hartsfield-J, GA, US

Issued at 0738 UTC 26 Apr 2018
Updated at 0751 UTC 26 Apr 2018
Potential Impact None Slight Moderate High
Time<<26/20Z 26/21Z 26/22Z 26/23Z 27/00Z 27/01Z 27/02Z 27/03Z 27/04Z 27/05Z 27/06Z 27/07Z 27/08Z>>
Type PRVL
  [PRB30]  
PRVL
  [PRB30]  
PRVL PRVL PRVL PRVL PRVL PRVL PRVL PRVL PRVL PRVL PRVL
VIS 6
  [3]  
6
  [3]  
6 6 >6 >6 >6 >6 >6 >6 >6 >6 >6
CIG 25
  [15]  
25
  [15]  
20 20 25 25 25 25 25 25 6 6 6
Cover OVC
  [BKN]  
OVC
  [BKN]  
BKN BKN BKN BKN BKN BKN BKN BKN OVC OVC OVC
FltCat MVFR
  [MVFR]  
MVFR
  [MVFR]  
MVFR MVFR MVFR MVFR MVFR MVFR MVFR MVFR IFR IFR IFR
WX -SHRA
  [-TSRA]  
-SHRA
  [-TSRA]  
-SHRA -SHRA -- -- -- -- -- -- -- -- --
WDir 140
[140]
140
[140]
180 180 260 260 260 260 260 260 290 290 290
WSpd 9
  [9]  
9
  [9]  
7 7 6 6 6 6 6 6 5 5 5
WGst --
  [--]  
--
  [--]  
-- -- -- -- -- -- -- -- -- -- --

Raw TAF
KATL 260738Z 2608/2712 32004KT P6SM SCT250
  FM261200 01003KT P6SM SCT070
  FM261500 14007KT P6SM VCSH BKN035
  FM261800 14009KT 6SM -SHRA BKN025 OVC045
  PROB30 2618/2622 3SM -TSRA BKN015CB
  FM262200 18007KT 6SM -SHRA BKN020
  FM270000 26006KT P6SM BKN025
  FM270600 29005KT P6SM OVC006


METAR Board
Radar Display
Forecast Discussion

FOR SITUATIONAL AWARENESS. NOT TO BE USED FOR FLIGHT PLANNING PURPOSES.